Country
Station

 

Weather  for  Dijon  -  France    France

  
6 °C (43 °F)
    
 
 

Current METAR for Dijon is :

LFSD 161830Z AUTO 03010KT 9999 OVC013 06/04 Q1024

 

This is a report for Dijon - France.
 
The report was made 33 minutes ago, at 18:30 UTC .
The wind was blowing at a speed of 5.1 meters per second (11.5 miles per hour) from north/northeast (030°).
 
The temperature was 6 °C (43 °F), with a dew-point at 4 °C (39 °F).
The atmospheric pressure was 1024 hPa (30.24 inHg).
The relative humidity was 87.0%.
 
The sky was overcast from a height of 396 meter (1300 feet)
 
The overall visibility was greater than 10 kilometers (6.2 miles).
 

 
 
 
 

Country :   A   B   C   D   E   F   G   H   I   J   K   L   M   N   O   P   Q   R   S   T   U   V   W   Y   Z

 

Site Info  |  Disclaimer  |  Credits  |  Privacy
Contact us  |  Add to favorites
© 2013-2018 METARs - All rights reserved